createdAt,value
2019-02-28T00:01:39.307Z,18.50
2019-02-28T00:04:10.030Z,15.73
2019-02-28T00:06:40.379Z,16.33
2019-02-28T00:09:12.144Z,14.73
2019-02-28T00:11:42.434Z,17.07
2019-02-28T00:14:12.757Z,17.43
2019-02-28T00:16:43.225Z,17.07
2019-02-28T00:19:13.372Z,13.53
2019-02-28T00:21:43.542Z,17.40
2019-02-28T00:24:13.741Z,18.77
2019-02-28T00:26:47.541Z,16.13
2019-02-28T00:29:15.929Z,17.73
2019-02-28T00:31:49.463Z,16.93
2019-02-28T00:34:18.038Z,16.77
2019-02-28T00:36:50.307Z,12.40
2019-02-28T00:39:20.447Z,14.70
2019-02-28T00:41:50.706Z,14.57
2019-02-28T00:44:20.892Z,17.73
2019-02-28T00:46:51.115Z,15.47
2019-02-28T00:49:24.494Z,17.50
2019-02-28T00:51:53.429Z,17.83
2019-02-28T00:54:23.666Z,14.87
2019-02-28T00:56:53.877Z,14.13
2019-02-28T00:59:24.265Z,15.20
2019-02-28T01:01:54.463Z,14.47
2019-02-28T01:04:25.769Z,15.10
2019-02-28T01:06:55.963Z,17.10
2019-02-28T01:09:27.143Z,16.77
2019-02-28T01:11:58.389Z,16.03
2019-02-28T01:14:28.594Z,15.00
2019-02-28T01:16:58.857Z,14.63
2019-02-28T01:19:29.075Z,14.60
2019-02-28T01:21:59.303Z,12.33
2019-02-28T01:24:34.483Z,14.80
2019-02-28T01:27:01.537Z,13.03
2019-02-28T01:29:32.914Z,14.80
2019-02-28T01:32:03.621Z,12.50
2019-02-28T01:34:33.843Z,14.63
2019-02-28T01:37:04.066Z,16.90
2019-02-28T01:39:34.244Z,14.97
2019-02-28T01:42:04.763Z,11.93
2019-02-28T01:44:35.842Z,14.90
2019-02-28T01:47:06.863Z,10.53
2019-02-28T01:49:37.059Z,13.00
2019-02-28T01:52:10.190Z,14.47
2019-02-28T01:54:39.172Z,13.63
2019-02-28T01:57:10.063Z,18.40
2019-02-28T01:59:40.545Z,11.83
2019-02-28T02:02:10.730Z,13.40
2019-02-28T02:04:43.240Z,14.30
2019-02-28T02:07:13.327Z,14.37
2019-02-28T02:09:46.313Z,14.53
2019-02-28T02:12:15.443Z,11.83
2019-02-28T02:14:45.821Z,15.90
2019-02-28T02:17:16.101Z,10.43
2019-02-28T02:19:49.388Z,14.47
2019-02-28T02:22:18.229Z,10.23
2019-02-28T02:24:48.455Z,9.53
2019-02-28T02:27:19.475Z,10.77
2019-02-28T02:29:50.850Z,10.67
2019-02-28T02:32:21.180Z,9.13
2019-02-28T02:34:51.455Z,10.43
2019-02-28T02:37:21.749Z,10.00
2019-02-28T02:39:52.016Z,10.40
2019-02-28T02:42:22.248Z,10.73
2019-02-28T02:44:52.461Z,14.10
2019-02-28T02:47:22.673Z,9.07
2019-02-28T02:49:57.423Z,7.37
2019-02-28T02:52:29.963Z,11.67
2019-02-28T02:54:56.983Z,8.47
2019-02-28T02:57:27.163Z,9.33
2019-02-28T02:59:58.468Z,9.90
2019-02-28T03:02:33.170Z,10.70
2019-02-28T03:05:01.993Z,11.03
2019-02-28T03:07:32.390Z,13.57
2019-02-28T03:10:02.613Z,15.13
2019-02-28T03:12:34.288Z,9.90
2019-02-28T03:15:04.679Z,14.20
2019-02-28T03:17:35.841Z,10.50
2019-02-28T03:20:07.951Z,11.60
2019-02-28T03:22:38.664Z,10.37
2019-02-28T03:25:10.017Z,11.93
2019-02-28T03:27:40.175Z,11.23
2019-02-28T03:30:26.496Z,11.40
2019-02-28T03:32:44.813Z,10.07
2019-02-28T03:35:15.082Z,10.87
2019-02-28T03:37:45.284Z,15.77
2019-02-28T03:40:15.587Z,11.43
2019-02-28T03:42:45.784Z,13.77
2019-02-28T03:45:16.245Z,14.07
2019-02-28T03:47:48.128Z,12.13
2019-02-28T03:50:21.865Z,11.70
2019-02-28T03:52:50.454Z,13.97
2019-02-28T03:55:20.785Z,15.50
2019-02-28T03:57:50.987Z,12.30
2019-02-28T04:00:21.271Z,21.30
2019-02-28T04:02:56.917Z,11.07
2019-02-28T04:05:28.070Z,13.60
2019-02-28T04:07:55.955Z,16.10
2019-02-28T04:10:26.136Z,16.03
2019-02-28T04:12:57.768Z,15.33
2019-02-28T04:15:27.989Z,12.10
2019-02-28T04:17:58.251Z,14.83
2019-02-28T04:20:36.118Z,18.70
2019-02-28T04:23:01.561Z,14.10
2019-02-28T04:25:31.763Z,15.13
2019-02-28T04:28:02.176Z,21.10
2019-02-28T04:30:34.381Z,20.60
2019-02-28T04:33:04.648Z,27.67
2019-02-28T04:35:34.819Z,28.47
2019-02-28T04:38:05.100Z,29.73
2019-02-28T04:40:35.305Z,19.87
2019-02-28T04:43:07.236Z,14.10
2019-02-28T04:45:37.746Z,13.50
2019-02-28T04:48:07.946Z,13.60
2019-02-28T04:50:38.266Z,13.37
2019-02-28T04:53:08.545Z,16.90
2019-02-28T04:55:38.790Z,14.73
2019-02-28T04:58:09.022Z,13.50
2019-02-28T05:00:39.260Z,12.23
2019-02-28T05:03:09.548Z,16.87
2019-02-28T05:05:40.221Z,18.13
2019-02-28T05:08:10.523Z,13.90
2019-02-28T05:10:40.705Z,12.87
2019-02-28T05:13:11.448Z,13.73
2019-02-28T05:15:43.214Z,11.97
2019-02-28T05:18:13.394Z,13.87
2019-02-28T05:20:45.962Z,15.97
2019-02-28T05:23:15.704Z,16.60
2019-02-28T05:25:45.907Z,16.90
2019-02-28T05:28:16.186Z,14.93
2019-02-28T05:30:46.505Z,17.30
2019-02-28T05:33:16.726Z,13.40
2019-02-28T05:35:47.121Z,15.30
2019-02-28T05:38:20.757Z,17.67
2019-02-28T05:40:49.392Z,15.93
2019-02-28T05:43:19.620Z,17.20
2019-02-28T05:45:49.886Z,21.50
2019-02-28T05:48:20.175Z,16.23
2019-02-28T05:50:53.337Z,13.63
2019-02-28T05:53:22.304Z,14.60
2019-02-28T05:55:52.584Z,13.03
2019-02-28T05:58:22.732Z,15.87
2019-02-28T06:00:53.033Z,13.87
2019-02-28T06:03:23.233Z,14.93
2019-02-28T06:05:53.735Z,17.17
2019-02-28T06:08:24.470Z,12.47
2019-02-28T06:10:56.069Z,15.33
2019-02-28T06:13:26.739Z,20.23
2019-02-28T06:15:58.229Z,14.07
2019-02-28T06:18:32.669Z,12.07
2019-02-28T06:21:00.793Z,15.13
2019-02-28T06:23:31.135Z,16.13
2019-02-28T06:26:01.477Z,13.57
2019-02-28T06:28:32.024Z,15.40
2019-02-28T06:31:02.242Z,13.77
2019-02-28T06:33:33.689Z,16.43
2019-02-28T06:36:05.465Z,22.03
2019-02-28T06:38:35.738Z,16.10
2019-02-28T06:41:07.607Z,14.00
2019-02-28T06:43:38.102Z,17.07
2019-02-28T06:46:09.490Z,14.87
2019-02-28T06:48:39.773Z,14.67
2019-02-28T06:51:10.533Z,17.53
2019-02-28T06:53:41.971Z,15.13
2019-02-28T06:56:12.168Z,20.97
2019-02-28T06:58:42.402Z,15.40
2019-02-28T07:01:12.754Z,14.80
2019-02-28T07:03:53.142Z,20.23
2019-02-28T07:06:17.905Z,21.77
2019-02-28T07:08:48.173Z,20.70
2019-02-28T07:11:19.922Z,16.87
2019-02-28T07:13:50.439Z,19.87
2019-02-28T07:16:21.032Z,18.47
2019-02-28T07:18:53.831Z,17.63
2019-02-28T07:21:24.040Z,17.10
2019-02-28T07:23:54.320Z,21.73
2019-02-28T07:26:24.619Z,21.77
2019-02-28T07:28:54.854Z,21.20
2019-02-28T07:31:25.543Z,23.63
2019-02-28T07:33:57.573Z,26.27
2019-02-28T07:36:27.826Z,25.73
2019-02-28T07:39:01.227Z,26.87
2019-02-28T07:41:33.925Z,31.73
2019-02-28T07:44:04.467Z,24.93
2019-02-28T07:46:34.661Z,26.97
2019-02-28T07:49:04.929Z,28.60
2019-02-28T07:51:35.188Z,30.73
2019-02-28T07:54:05.370Z,26.87
2019-02-28T07:56:42.742Z,27.67
2019-02-28T07:59:08.372Z,28.60
2019-02-28T08:01:38.584Z,30.60
2019-02-28T08:04:08.808Z,25.80
2019-02-28T08:06:40.425Z,28.20
2019-02-28T08:09:26.848Z,30.23
2019-02-28T08:11:57.262Z,33.90
2019-02-28T08:14:27.696Z,28.33
2019-02-28T08:16:57.921Z,32.90
2019-02-28T08:19:28.324Z,34.20
2019-02-28T08:21:58.612Z,31.60
2019-02-28T08:24:28.850Z,34.77
2019-02-28T08:26:59.265Z,33.23
2019-02-28T08:29:29.446Z,34.77
2019-02-28T08:31:59.678Z,33.40
2019-02-28T08:34:29.874Z,32.87
2019-02-28T08:37:00.339Z,34.00
2019-02-28T08:39:31.098Z,34.00
2019-02-28T08:42:04.550Z,32.33
2019-02-28T08:44:37.390Z,32.30
2019-02-28T08:47:07.884Z,34.03
2019-02-28T08:49:44.686Z,36.33
2019-02-28T08:52:12.141Z,39.97
2019-02-28T08:54:46.909Z,40.20
2019-02-28T08:57:17.226Z,34.70
2019-02-28T08:59:52.513Z,39.47
2019-02-28T09:02:22.571Z,37.20
2019-02-28T09:04:53.491Z,35.27
2019-02-28T09:07:24.158Z,37.97
2019-02-28T09:09:54.581Z,35.13
2019-02-28T09:12:24.856Z,36.63
2019-02-28T09:14:56.201Z,36.10
2019-02-28T09:17:26.621Z,41.37
2019-02-28T09:19:56.839Z,39.20
2019-02-28T09:22:28.059Z,39.80
2019-02-28T09:25:13.846Z,40.53
2019-02-28T09:27:45.435Z,49.27
2019-02-28T09:30:31.297Z,43.17
2019-02-28T09:33:01.568Z,36.97
2019-02-28T09:35:31.972Z,36.70
2019-02-28T09:38:06.361Z,43.23
2019-02-28T09:40:36.375Z,36.77
2019-02-28T09:43:06.622Z,40.00
2019-02-28T09:45:40.021Z,39.87
2019-02-28T09:48:10.140Z,41.40
2019-02-28T09:50:40.850Z,41.00
2019-02-28T09:53:15.513Z,40.43
2019-02-28T09:55:45.882Z,41.63
2019-02-28T09:58:16.617Z,40.47
2019-02-28T10:00:50.198Z,43.40
2019-02-28T10:03:19.536Z,41.40
2019-02-28T10:05:51.091Z,44.10
2019-02-28T10:08:26.167Z,39.60
2019-02-28T10:10:58.096Z,41.33
2019-02-28T10:13:28.583Z,36.60
2019-02-28T10:15:58.926Z,37.73
2019-02-28T10:18:29.372Z,37.53
2019-02-28T10:21:01.890Z,40.70
2019-02-28T10:23:31.640Z,44.00
2019-02-28T10:26:03.512Z,47.37
2019-02-28T10:28:33.842Z,48.57
2019-02-28T10:31:04.086Z,47.00
2019-02-28T10:33:34.308Z,42.40
2019-02-28T10:36:04.598Z,56.43
2019-02-28T10:38:35.641Z,45.47
2019-02-28T10:41:13.108Z,50.50
2019-02-28T10:43:54.815Z,57.70
2019-02-28T10:46:32.103Z,50.73
2019-02-28T10:49:12.849Z,49.87
2019-02-28T10:51:50.326Z,48.37
2019-02-28T10:54:26.651Z,49.93
2019-02-28T10:57:06.058Z,49.77
2019-02-28T10:59:42.213Z,46.97
2019-02-28T11:02:20.042Z,46.87
2019-02-28T11:04:57.050Z,44.33
2019-02-28T11:07:34.242Z,45.30
2019-02-28T11:10:16.279Z,43.90
2019-02-28T11:12:57.938Z,44.00
2019-02-28T11:15:36.934Z,47.87
2019-02-28T11:18:13.344Z,43.20
2019-02-28T11:20:52.988Z,42.83
2019-02-28T11:23:31.914Z,42.37
2019-02-28T11:26:10.481Z,41.73
2019-02-28T11:28:50.980Z,42.00
2019-02-28T11:31:29.693Z,40.50
2019-02-28T11:34:11.605Z,44.67
2019-02-28T11:36:52.216Z,45.97
2019-02-28T11:39:33.732Z,41.43
2019-02-28T11:42:12.121Z,40.37
2019-02-28T11:44:52.794Z,42.60
2019-02-28T11:47:32.334Z,40.53
2019-02-28T11:50:10.821Z,40.37
2019-02-28T11:52:46.605Z,42.00
2019-02-28T11:55:20.330Z,39.23
2019-02-28T11:57:53.259Z,39.60
2019-02-28T12:00:29.063Z,39.63
2019-02-28T12:03:00.910Z,42.23
2019-02-28T12:05:32.236Z,39.20
2019-02-28T12:08:09.301Z,38.80
2019-02-28T12:10:36.432Z,43.50
2019-02-28T12:13:06.678Z,44.33
2019-02-28T12:15:38.229Z,42.20
2019-02-28T12:18:09.152Z,42.60
2019-02-28T12:20:39.703Z,44.03
2019-02-28T12:23:10.403Z,41.37
2019-02-28T12:25:42.768Z,40.10
2019-02-28T12:28:13.028Z,41.93
2019-02-28T12:30:43.358Z,44.07
2019-02-28T12:33:15.375Z,37.30
2019-02-28T12:35:46.780Z,44.77
2019-02-28T12:38:17.090Z,43.73
2019-02-28T12:40:49.463Z,43.67
2019-02-28T12:43:19.484Z,43.13
2019-02-28T12:45:49.916Z,41.33
2019-02-28T12:48:21.788Z,47.10
2019-02-28T12:50:52.263Z,42.67
2019-02-28T12:53:25.285Z,48.97
2019-02-28T12:55:55.978Z,46.17
2019-02-28T12:58:26.257Z,44.73
2019-02-28T13:01:00.050Z,45.40
2019-02-28T13:03:30.660Z,48.70
2019-02-28T13:06:01.150Z,44.07
2019-02-28T13:08:31.491Z,46.30
2019-02-28T13:11:04.326Z,46.13
2019-02-28T13:13:34.239Z,48.40
2019-02-28T13:16:04.478Z,45.30
2019-02-28T13:18:34.771Z,49.93
2019-02-28T13:21:06.220Z,44.10
2019-02-28T13:23:40.527Z,50.50
2019-02-28T13:26:10.935Z,46.50
2019-02-28T13:28:41.364Z,45.70
2019-02-28T13:31:50.072Z,48.37
2019-02-28T13:34:40.789Z,49.47
2019-02-28T13:37:28.526Z,48.57
2019-02-28T13:40:24.820Z,47.47
2019-02-28T13:43:24.190Z,47.33
2019-02-28T13:46:13.477Z,50.23
2019-02-28T13:49:21.187Z,45.57
2019-02-28T13:52:26.531Z,51.57
2019-02-28T13:55:18.951Z,49.13
2019-02-28T13:58:21.588Z,49.20
2019-02-28T14:01:30.608Z,49.63
2019-02-28T14:04:44.999Z,52.07
2019-02-28T14:07:53.420Z,46.37
2019-02-28T14:10:58.444Z,45.73
2019-02-28T14:16:49.626Z,50.53
2019-02-28T14:19:55.329Z,51.50
2019-02-28T14:22:45.826Z,51.90
2019-02-28T14:25:54.906Z,49.43
2019-02-28T14:29:13.877Z,49.80
2019-02-28T14:35:24.954Z,48.83
2019-02-28T14:38:36.842Z,50.07
2019-02-28T14:41:41.897Z,53.40
2019-02-28T14:44:47.326Z,53.53
2019-02-28T14:47:56.875Z,49.77
2019-02-28T14:51:19.072Z,53.30
2019-02-28T14:54:16.345Z,56.47
2019-02-28T14:57:13.345Z,54.40
2019-02-28T15:00:38.974Z,57.10
2019-02-28T15:03:40.637Z,50.50
2019-02-28T15:06:12.883Z,47.67
2019-02-28T15:08:43.331Z,49.90
2019-02-28T15:11:13.834Z,52.37
2019-02-28T15:13:44.352Z,50.63
2019-02-28T15:16:26.561Z,54.53
2019-02-28T15:18:56.943Z,54.43
2019-02-28T15:21:27.266Z,53.67
2019-02-28T15:23:57.673Z,53.27
2019-02-28T15:26:29.564Z,54.63
2019-02-28T15:29:00.719Z,49.80
2019-02-28T15:31:31.173Z,58.33
2019-02-28T15:34:05.501Z,60.43
2019-02-28T15:36:34.525Z,58.83
2019-02-28T15:39:06.238Z,52.07
2019-02-28T15:41:37.742Z,51.30
2019-02-28T15:44:08.663Z,60.73
2019-02-28T15:46:39.770Z,59.10
2019-02-28T15:49:10.980Z,53.00
2019-02-28T15:51:41.570Z,60.90
2019-02-28T15:54:11.872Z,58.53
2019-02-28T15:56:42.295Z,57.83
2019-02-28T15:59:14.787Z,55.20
2019-02-28T16:01:44.606Z,60.37
2019-02-28T16:04:14.957Z,60.90
2019-02-28T16:06:45.490Z,56.27
2019-02-28T16:09:18.759Z,61.73
2019-02-28T16:11:49.168Z,58.03
2019-02-28T16:14:19.531Z,57.60
2019-02-28T16:16:50.385Z,60.67
2019-02-28T16:19:21.940Z,60.83
2019-02-28T16:21:53.216Z,64.37
2019-02-28T16:24:23.654Z,61.23
2019-02-28T16:26:56.743Z,61.47
2019-02-28T16:29:26.389Z,59.03
2019-02-28T16:31:57.122Z,60.37
2019-02-28T16:34:27.596Z,61.43
2019-02-28T16:37:00.948Z,67.17
2019-02-28T16:39:29.787Z,67.03
2019-02-28T16:42:00.288Z,65.77
2019-02-28T16:44:31.818Z,67.53
2019-02-28T16:47:03.455Z,60.93
2019-02-28T16:49:33.693Z,66.70
2019-02-28T16:52:06.022Z,64.40
2019-02-28T16:54:36.167Z,66.97
2019-02-28T16:57:09.495Z,64.93
2019-02-28T16:59:42.785Z,62.33
2019-02-28T17:02:13.597Z,64.07
2019-02-28T17:04:44.074Z,60.70
2019-02-28T17:07:15.197Z,65.97
2019-02-28T17:09:45.510Z,59.77
2019-02-28T17:12:36.206Z,63.10
2019-02-28T17:15:13.390Z,61.50
2019-02-28T17:17:51.412Z,62.93
2019-02-28T17:20:21.819Z,58.27
2019-02-28T17:22:52.414Z,58.40
2019-02-28T17:25:22.819Z,61.73
2019-02-28T17:28:12.293Z,61.63
2019-02-28T17:30:56.047Z,60.03
2019-02-28T17:33:26.383Z,60.30
2019-02-28T17:35:59.144Z,62.43
2019-02-28T17:38:32.293Z,59.77
2019-02-28T17:41:03.628Z,61.23
2019-02-28T17:43:36.902Z,63.83
2019-02-28T17:46:08.225Z,60.00
2019-02-28T17:48:59.707Z,57.17
2019-02-28T17:51:59.306Z,62.57
2019-02-28T17:55:08.852Z,63.50
2019-02-28T17:58:16.318Z,69.53
2019-02-28T18:01:32.664Z,61.17
2019-02-28T18:05:03.801Z,60.40
2019-02-28T18:08:02.119Z,66.20
2019-02-28T18:11:17.961Z,70.57
2019-02-28T18:14:11.179Z,57.87
2019-02-28T18:17:26.430Z,66.93
2019-02-28T18:20:20.904Z,55.33
2019-02-28T18:23:21.265Z,60.27
2019-02-28T18:26:13.258Z,58.87
2019-02-28T18:29:09.234Z,56.10
2019-02-28T18:31:41.985Z,62.60
2019-02-28T18:34:21.925Z,59.80
2019-02-28T18:36:54.559Z,57.77
2019-02-28T18:39:25.472Z,61.40
2019-02-28T18:41:55.860Z,56.97
2019-02-28T18:44:26.828Z,58.97
2019-02-28T18:46:58.197Z,56.93
2019-02-28T18:49:29.422Z,55.80
2019-02-28T18:52:01.607Z,56.70
2019-02-28T18:54:31.996Z,56.57
2019-02-28T18:57:04.550Z,56.07
2019-02-28T18:59:36.593Z,58.70
2019-02-28T19:02:07.309Z,59.83
2019-02-28T19:04:38.206Z,53.03
2019-02-28T19:07:08.491Z,59.10
2019-02-28T19:09:40.425Z,53.63
2019-02-28T19:12:11.459Z,55.83
2019-02-28T19:14:42.421Z,56.33
2019-02-28T19:17:13.777Z,51.57
2019-02-28T19:19:45.185Z,57.47
2019-02-28T19:22:16.018Z,56.80
2019-02-28T19:25:16.917Z,57.20
2019-02-28T19:27:47.390Z,53.03
2019-02-28T19:30:18.060Z,58.87
2019-02-28T19:32:48.383Z,53.43
2019-02-28T19:35:18.789Z,54.87
2019-02-28T19:37:49.963Z,57.70
2019-02-28T19:40:20.288Z,54.63
2019-02-28T19:42:50.738Z,55.77
2019-02-28T19:45:24.355Z,57.60
2019-02-28T19:47:54.659Z,61.03
2019-02-28T19:50:24.912Z,59.80
2019-02-28T19:52:55.412Z,57.07
2019-02-28T19:55:26.987Z,54.83
2019-02-28T19:57:57.322Z,56.20
2019-02-28T20:00:27.868Z,59.93
2019-02-28T20:02:58.090Z,63.77
2019-02-28T20:05:28.647Z,59.17
2019-02-28T20:07:59.183Z,60.53
2019-02-28T20:10:29.608Z,58.00
2019-02-28T20:13:01.711Z,56.63
2019-02-28T20:15:34.266Z,63.13
2019-02-28T20:18:04.697Z,59.80
2019-02-28T20:20:35.135Z,62.93
2019-02-28T20:23:06.199Z,59.03
2019-02-28T20:25:36.759Z,61.63
2019-02-28T20:28:07.038Z,60.87
2019-02-28T20:30:37.385Z,64.53
2019-02-28T20:33:07.737Z,61.07
2019-02-28T20:35:38.055Z,53.63
2019-02-28T20:38:08.725Z,56.77
2019-02-28T20:40:39.185Z,59.57
2019-02-28T20:43:09.631Z,54.20
2019-02-28T20:45:41.165Z,63.67
2019-02-28T20:48:11.581Z,63.40
2019-02-28T20:50:42.605Z,57.83
2019-02-28T20:53:12.849Z,56.67
2019-02-28T20:55:43.317Z,63.03
2019-02-28T20:58:13.695Z,63.07
2019-02-28T21:00:44.882Z,67.60
2019-02-28T21:03:15.312Z,63.13
2019-02-28T21:05:45.629Z,64.60
2019-02-28T21:08:15.956Z,62.67
2019-02-28T21:10:46.782Z,64.23
2019-02-28T21:13:22.013Z,69.13
2019-02-28T21:15:52.298Z,66.63
2019-02-28T21:18:22.652Z,63.80
2019-02-28T21:20:53.018Z,59.47
2019-02-28T21:23:23.702Z,69.00
2019-02-28T21:25:54.126Z,66.23
2019-02-28T21:28:25.679Z,69.77
2019-02-28T21:30:57.776Z,64.07
2019-02-28T21:33:29.114Z,64.03
2019-02-28T21:36:00.701Z,65.63
2019-02-28T21:38:35.881Z,65.70
2019-02-28T21:41:09.329Z,64.47
2019-02-28T21:43:40.788Z,63.73
2019-02-28T21:46:29.449Z,65.00
2019-02-28T21:48:59.862Z,62.87
2019-02-28T21:51:31.095Z,70.87
2019-02-28T21:54:01.677Z,66.97
2019-02-28T21:56:33.470Z,59.60
2019-02-28T21:59:06.567Z,64.10
2019-02-28T22:01:36.953Z,62.93
2019-02-28T22:04:08.532Z,64.77
2019-02-28T22:06:42.654Z,67.77
2019-02-28T22:09:14.207Z,59.47
2019-02-28T22:11:46.134Z,61.87
2019-02-28T22:14:16.728Z,71.77
2019-02-28T22:16:46.995Z,63.97
2019-02-28T22:19:17.244Z,61.63
2019-02-28T22:21:47.576Z,65.53
2019-02-28T22:24:18.033Z,59.07
2019-02-28T22:26:49.319Z,57.10
2019-02-28T22:29:19.632Z,64.20
2019-02-28T22:32:07.936Z,65.43
2019-02-28T22:35:03.201Z,63.97
2019-02-28T22:37:33.647Z,71.23
2019-02-28T22:40:04.110Z,66.87
2019-02-28T22:42:35.466Z,70.10
2019-02-28T22:45:06.411Z,78.03
2019-02-28T22:47:37.094Z,65.37
2019-02-28T22:50:07.790Z,70.93
2019-02-28T22:52:38.283Z,76.83
2019-02-28T22:55:08.899Z,73.37
2019-02-28T22:57:39.149Z,69.67
2019-02-28T23:00:22.099Z,72.63
2019-02-28T23:03:18.994Z,71.27
2019-02-28T23:05:49.533Z,77.30
2019-02-28T23:08:19.841Z,73.93
2019-02-28T23:10:50.128Z,70.73
2019-02-28T23:13:20.475Z,73.63
2019-02-28T23:15:50.702Z,78.27
2019-02-28T23:18:20.943Z,71.87
2019-02-28T23:20:51.221Z,74.00
2019-02-28T23:23:21.481Z,72.60
2019-02-28T23:25:52.123Z,75.20
2019-02-28T23:28:30.787Z,77.03
2019-02-28T23:31:35.635Z,74.70
2019-02-28T23:34:11.727Z,76.33
2019-02-28T23:36:42.053Z,83.60
2019-02-28T23:39:12.297Z,81.53
2019-02-28T23:41:42.689Z,85.50
2019-02-28T23:44:13.173Z,84.77
2019-02-28T23:46:43.428Z,84.03
2019-02-28T23:49:13.656Z,84.07
2019-02-28T23:51:44.966Z,87.43
2019-02-28T23:54:15.250Z,86.03
2019-02-28T23:56:45.473Z,83.73
2019-02-28T23:59:15.859Z,80.73
